Aviation Digital Data Service (ADDS)

Output produced by METARs form (1057 UTC 01 March 2015)
found at http://aviationweather.gov/adds/metars/
 
KLAS 010940Z 0110/0206 21005KT P6SM BKN080 
     FM011500 20007KT P6SM BKN070 
     FM020000 18005KT P6SM -RA SCT040 BKN050 OVC070